sensor_id;sensor_type;location;lat;lon;timestamp;temperature;humidity
38848;DHT22;24602;44.780;20.408;2022-08-19T00:02:04;28.60;76.40
38848;DHT22;24602;44.780;20.408;2022-08-19T00:04:35;28.60;76.40
38848;DHT22;24602;44.780;20.408;2022-08-19T00:07:07;28.50;76.10
38848;DHT22;24602;44.780;20.408;2022-08-19T00:09:35;28.50;75.40
38848;DHT22;24602;44.780;20.408;2022-08-19T00:12:47;28.50;75.50
38848;DHT22;24602;44.780;20.408;2022-08-19T00:15:17;28.50;76.30
38848;DHT22;24602;44.780;20.408;2022-08-19T00:17:52;28.50;77.50
38848;DHT22;24602;44.780;20.408;2022-08-19T00:20:25;28.40;78.60
38848;DHT22;24602;44.780;20.408;2022-08-19T00:22:57;28.40;79.20
38848;DHT22;24602;44.780;20.408;2022-08-19T00:25:25;28.40;79.50
38848;DHT22;24602;44.780;20.408;2022-08-19T00:27:59;28.40;79.00
38848;DHT22;24602;44.780;20.408;2022-08-19T00:30:30;28.50;78.70
38848;DHT22;24602;44.780;20.408;2022-08-19T00:33:04;28.50;78.70
38848;DHT22;24602;44.780;20.408;2022-08-19T00:35:36;28.50;78.60
38848;DHT22;24602;44.780;20.408;2022-08-19T00:38:07;28.50;78.10
38848;DHT22;24602;44.780;20.408;2022-08-19T00:40:37;28.50;77.00
38848;DHT22;24602;44.780;20.408;2022-08-19T00:43:13;28.50;76.50
38848;DHT22;24602;44.780;20.408;2022-08-19T00:45:48;28.60;75.90
38848;DHT22;24602;44.780;20.408;2022-08-19T00:48:19;28.50;76.80
38848;DHT22;24602;44.780;20.408;2022-08-19T00:50:53;28.50;77.40
38848;DHT22;24602;44.780;20.408;2022-08-19T00:53:29;28.50;77.40
38848;DHT22;24602;44.780;20.408;2022-08-19T00:56:03;28.40;77.90
38848;DHT22;24602;44.780;20.408;2022-08-19T00:58:36;28.30;77.40
38848;DHT22;24602;44.780;20.408;2022-08-19T01:01:05;28.30;76.70
38848;DHT22;24602;44.780;20.408;2022-08-19T01:03:38;28.20;75.00
38848;DHT22;24602;44.780;20.408;2022-08-19T01:06:28;28.30;74.60
38848;DHT22;24602;44.780;20.408;2022-08-19T01:08:57;28.30;75.50
38848;DHT22;24602;44.780;20.408;2022-08-19T01:11:35;28.30;74.80
38848;DHT22;24602;44.780;20.408;2022-08-19T01:14:07;28.20;75.90
38848;DHT22;24602;44.780;20.408;2022-08-19T01:16:40;28.20;76.80
38848;DHT22;24602;44.780;20.408;2022-08-19T01:19:22;28.00;76.50
38848;DHT22;24602;44.780;20.408;2022-08-19T01:22:04;28.00;76.50
38848;DHT22;24602;44.780;20.408;2022-08-19T01:24:43;27.90;77.00
38848;DHT22;24602;44.780;20.408;2022-08-19T01:27:18;27.80;77.50
38848;DHT22;24602;44.780;20.408;2022-08-19T01:29:51;27.80;77.50
38848;DHT22;24602;44.780;20.408;2022-08-19T01:32:23;27.80;76.40
38848;DHT22;24602;44.780;20.408;2022-08-19T01:35:02;27.80;76.00
38848;DHT22;24602;44.780;20.408;2022-08-19T01:38:05;27.80;75.20
38848;DHT22;24602;44.780;20.408;2022-08-19T01:40:40;27.80;74.60
38848;DHT22;24602;44.780;20.408;2022-08-19T01:43:10;27.80;74.10
38848;DHT22;24602;44.780;20.408;2022-08-19T01:45:43;27.80;74.00
38848;DHT22;24602;44.780;20.408;2022-08-19T01:48:14;27.80;73.70
38848;DHT22;24602;44.780;20.408;2022-08-19T01:50:42;27.80;73.40
38848;DHT22;24602;44.780;20.408;2022-08-19T01:53:11;27.80;73.20
38848;DHT22;24602;44.780;20.408;2022-08-19T01:55:44;27.80;74.30
38848;DHT22;24602;44.780;20.408;2022-08-19T01:58:22;27.80;74.30
38848;DHT22;24602;44.780;20.408;2022-08-19T02:00:51;27.80;73.80
38848;DHT22;24602;44.780;20.408;2022-08-19T02:03:19;27.80;74.10
38848;DHT22;24602;44.780;20.408;2022-08-19T02:06:00;27.80;73.90
38848;DHT22;24602;44.780;20.408;2022-08-19T02:08:36;27.90;73.60
38848;DHT22;24602;44.780;20.408;2022-08-19T02:11:08;27.90;73.20
38848;DHT22;24602;44.780;20.408;2022-08-19T02:13:38;27.90;72.40
38848;DHT22;24602;44.780;20.408;2022-08-19T02:16:07;28.00;72.10
38848;DHT22;24602;44.780;20.408;2022-08-19T02:18:41;28.00;71.60
38848;DHT22;24602;44.780;20.408;2022-08-19T02:21:13;28.10;71.20
38848;DHT22;24602;44.780;20.408;2022-08-19T02:23:46;28.00;72.30
38848;DHT22;24602;44.780;20.408;2022-08-19T02:26:17;28.00;73.10
38848;DHT22;24602;44.780;20.408;2022-08-19T02:28:46;28.00;73.80
38848;DHT22;24602;44.780;20.408;2022-08-19T02:31:18;27.90;75.20
38848;DHT22;24602;44.780;20.408;2022-08-19T02:33:53;27.80;76.50
38848;DHT22;24602;44.780;20.408;2022-08-19T02:36:27;27.70;78.20
38848;DHT22;24602;44.780;20.408;2022-08-19T02:38:59;27.60;78.50
38848;DHT22;24602;44.780;20.408;2022-08-19T02:41:32;27.50;79.10
38848;DHT22;24602;44.780;20.408;2022-08-19T02:44:03;27.50;79.90
38848;DHT22;24602;44.780;20.408;2022-08-19T02:46:55;27.40;81.30
38848;DHT22;24602;44.780;20.408;2022-08-19T02:49:25;27.30;82.30
38848;DHT22;24602;44.780;20.408;2022-08-19T02:52:04;27.30;83.30
38848;DHT22;24602;44.780;20.408;2022-08-19T02:54:35;27.30;83.40
38848;DHT22;24602;44.780;20.408;2022-08-19T02:57:06;27.20;83.70
38848;DHT22;24602;44.780;20.408;2022-08-19T02:59:35;27.20;83.80
38848;DHT22;24602;44.780;20.408;2022-08-19T03:02:03;27.10;84.10
38848;DHT22;24602;44.780;20.408;2022-08-19T03:04:32;27.10;84.80
38848;DHT22;24602;44.780;20.408;2022-08-19T03:07:04;27.10;85.70
38848;DHT22;24602;44.780;20.408;2022-08-19T03:09:39;27.00;86.70
38848;DHT22;24602;44.780;20.408;2022-08-19T03:12:09;27.00;87.50
38848;DHT22;24602;44.780;20.408;2022-08-19T03:14:41;26.90;88.10
38848;DHT22;24602;44.780;20.408;2022-08-19T03:17:13;26.80;88.40
38848;DHT22;24602;44.780;20.408;2022-08-19T03:19:43;26.80;88.80
38848;DHT22;24602;44.780;20.408;2022-08-19T03:22:13;26.80;89.60
38848;DHT22;24602;44.780;20.408;2022-08-19T03:24:48;26.70;90.10
38848;DHT22;24602;44.780;20.408;2022-08-19T03:27:19;26.70;90.50
38848;DHT22;24602;44.780;20.408;2022-08-19T03:29:48;26.60;90.80
38848;DHT22;24602;44.780;20.408;2022-08-19T03:32:20;26.60;91.30
38848;DHT22;24602;44.780;20.408;2022-08-19T03:34:59;26.60;91.50
38848;DHT22;24602;44.780;20.408;2022-08-19T03:37:29;26.50;91.20
38848;DHT22;24602;44.780;20.408;2022-08-19T03:39:58;26.50;91.50
38848;DHT22;24602;44.780;20.408;2022-08-19T03:42:31;26.40;91.60
38848;DHT22;24602;44.780;20.408;2022-08-19T03:45:19;26.30;91.70
38848;DHT22;24602;44.780;20.408;2022-08-19T03:47:50;26.30;91.50
38848;DHT22;24602;44.780;20.408;2022-08-19T03:50:18;26.30;91.40
38848;DHT22;24602;44.780;20.408;2022-08-19T03:52:50;26.30;91.40
38848;DHT22;24602;44.780;20.408;2022-08-19T03:55:22;26.20;91.30
38848;DHT22;24602;44.780;20.408;2022-08-19T03:57:55;26.20;91.20
38848;DHT22;24602;44.780;20.408;2022-08-19T04:00:28;26.20;91.40
38848;DHT22;24602;44.780;20.408;2022-08-19T04:03:01;26.20;91.60
38848;DHT22;24602;44.780;20.408;2022-08-19T04:05:30;26.20;91.70
38848;DHT22;24602;44.780;20.408;2022-08-19T04:08:00;26.30;91.70
38848;DHT22;24602;44.780;20.408;2022-08-19T04:10:36;26.30;91.70
38848;DHT22;24602;44.780;20.408;2022-08-19T04:13:08;26.30;91.60
38848;DHT22;24602;44.780;20.408;2022-08-19T04:15:50;26.30;91.70
38848;DHT22;24602;44.780;20.408;2022-08-19T04:18:22;26.20;91.70
38848;DHT22;24602;44.780;20.408;2022-08-19T04:20:54;26.20;91.70
38848;DHT22;24602;44.780;20.408;2022-08-19T04:23:25;26.20;91.70
38848;DHT22;24602;44.780;20.408;2022-08-19T04:25:55;26.20;91.70
38848;DHT22;24602;44.780;20.408;2022-08-19T04:28:28;26.20;91.90
38848;DHT22;24602;44.780;20.408;2022-08-19T04:31:00;26.30;91.80
38848;DHT22;24602;44.780;20.408;2022-08-19T04:33:32;26.20;91.80
38848;DHT22;24602;44.780;20.408;2022-08-19T04:36:03;26.20;91.60
38848;DHT22;24602;44.780;20.408;2022-08-19T04:38:33;26.20;91.60
38848;DHT22;24602;44.780;20.408;2022-08-19T04:41:07;26.20;91.70
38848;DHT22;24602;44.780;20.408;2022-08-19T04:43:56;26.30;91.70
38848;DHT22;24602;44.780;20.408;2022-08-19T04:46:30;26.30;91.50
38848;DHT22;24602;44.780;20.408;2022-08-19T04:49:08;26.40;91.60
38848;DHT22;24602;44.780;20.408;2022-08-19T04:51:45;26.30;91.40
38848;DHT22;24602;44.780;20.408;2022-08-19T04:54:18;26.30;91.30
38848;DHT22;24602;44.780;20.408;2022-08-19T04:57:07;26.40;91.50
38848;DHT22;24602;44.780;20.408;2022-08-19T04:59:43;26.40;91.50
38848;DHT22;24602;44.780;20.408;2022-08-19T05:02:15;26.40;91.40
38848;DHT22;24602;44.780;20.408;2022-08-19T05:04:43;26.30;91.50
38848;DHT22;24602;44.780;20.408;2022-08-19T05:07:14;26.40;91.60
38848;DHT22;24602;44.780;20.408;2022-08-19T05:09:44;26.40;91.30
38848;DHT22;24602;44.780;20.408;2022-08-19T05:12:27;26.50;91.20
38848;DHT22;24602;44.780;20.408;2022-08-19T05:14:59;26.50;91.20
38848;DHT22;24602;44.780;20.408;2022-08-19T05:17:32;26.60;91.20
38848;DHT22;24602;44.780;20.408;2022-08-19T05:20:07;26.70;91.10
38848;DHT22;24602;44.780;20.408;2022-08-19T05:22:56;26.70;91.10
38848;DHT22;24602;44.780;20.408;2022-08-19T05:25:27;26.70;91.10
38848;DHT22;24602;44.780;20.408;2022-08-19T05:27:58;26.70;91.00
38848;DHT22;24602;44.780;20.408;2022-08-19T05:30:30;26.70;91.20
38848;DHT22;24602;44.780;20.408;2022-08-19T05:33:15;26.80;91.30
38848;DHT22;24602;44.780;20.408;2022-08-19T05:35:45;26.80;91.20
38848;DHT22;24602;44.780;20.408;2022-08-19T05:38:17;26.90;91.20
38848;DHT22;24602;44.780;20.408;2022-08-19T05:40:49;27.00;91.20
38848;DHT22;24602;44.780;20.408;2022-08-19T05:43:18;27.10;91.20
38848;DHT22;24602;44.780;20.408;2022-08-19T05:45:49;27.20;91.10
38848;DHT22;24602;44.780;20.408;2022-08-19T05:48:20;27.30;91.00
38848;DHT22;24602;44.780;20.408;2022-08-19T05:50:50;27.30;90.90
38848;DHT22;24602;44.780;20.408;2022-08-19T05:53:22;27.30;91.10
38848;DHT22;24602;44.780;20.408;2022-08-19T05:55:54;27.40;91.30
38848;DHT22;24602;44.780;20.408;2022-08-19T05:58:27;27.40;91.10
38848;DHT22;24602;44.780;20.408;2022-08-19T06:01:00;27.50;90.80
38848;DHT22;24602;44.780;20.408;2022-08-19T06:03:42;27.70;89.10
38848;DHT22;24602;44.780;20.408;2022-08-19T06:06:14;27.80;87.10
38848;DHT22;24602;44.780;20.408;2022-08-19T06:08:43;28.00;85.60
38848;DHT22;24602;44.780;20.408;2022-08-19T06:11:22;28.10;84.40
38848;DHT22;24602;44.780;20.408;2022-08-19T06:13:55;28.20;81.20
38848;DHT22;24602;44.780;20.408;2022-08-19T06:16:27;28.40;81.10
38848;DHT22;24602;44.780;20.408;2022-08-19T06:19:00;28.50;79.40
38848;DHT22;24602;44.780;20.408;2022-08-19T06:21:31;28.60;79.20
38848;DHT22;24602;44.780;20.408;2022-08-19T06:24:08;28.60;78.20
38848;DHT22;24602;44.780;20.408;2022-08-19T06:26:42;28.70;76.90
38848;DHT22;24602;44.780;20.408;2022-08-19T06:29:19;28.80;75.60
38848;DHT22;24602;44.780;20.408;2022-08-19T06:31:56;28.90;75.90
38848;DHT22;24602;44.780;20.408;2022-08-19T06:34:36;29.00;75.30
38848;DHT22;24602;44.780;20.408;2022-08-19T06:37:07;29.10;73.80
38848;DHT22;24602;44.780;20.408;2022-08-19T06:39:38;29.20;74.10
38848;DHT22;24602;44.780;20.408;2022-08-19T06:42:10;29.30;73.80
38848;DHT22;24602;44.780;20.408;2022-08-19T06:44:52;29.40;73.40
38848;DHT22;24602;44.780;20.408;2022-08-19T06:47:21;29.40;73.40
38848;DHT22;24602;44.780;20.408;2022-08-19T06:49:58;29.40;72.90
38848;DHT22;24602;44.780;20.408;2022-08-19T06:52:45;29.50;72.20
38848;DHT22;24602;44.780;20.408;2022-08-19T06:55:19;29.60;71.40
38848;DHT22;24602;44.780;20.408;2022-08-19T06:57:50;29.70;71.30
38848;DHT22;24602;44.780;20.408;2022-08-19T07:00:22;29.70;70.30
38848;DHT22;24602;44.780;20.408;2022-08-19T07:02:51;29.90;70.80
38848;DHT22;24602;44.780;20.408;2022-08-19T07:05:30;29.90;71.00
38848;DHT22;24602;44.780;20.408;2022-08-19T07:08:01;29.90;71.40
38848;DHT22;24602;44.780;20.408;2022-08-19T07:10:32;30.00;71.00
38848;DHT22;24602;44.780;20.408;2022-08-19T07:13:03;30.10;70.30
38848;DHT22;24602;44.780;20.408;2022-08-19T07:16:10;30.10;69.40
38848;DHT22;24602;44.780;20.408;2022-08-19T07:18:48;30.10;69.30
38848;DHT22;24602;44.780;20.408;2022-08-19T07:21:22;30.20;69.30
38848;DHT22;24602;44.780;20.408;2022-08-19T07:23:59;30.30;68.70
38848;DHT22;24602;44.780;20.408;2022-08-19T07:26:37;30.30;69.30
38848;DHT22;24602;44.780;20.408;2022-08-19T07:29:10;30.40;68.90
38848;DHT22;24602;44.780;20.408;2022-08-19T07:31:44;30.50;68.60
38848;DHT22;24602;44.780;20.408;2022-08-19T07:34:13;30.50;67.00
38848;DHT22;24602;44.780;20.408;2022-08-19T07:36:46;30.50;71.60
38848;DHT22;24602;44.780;20.408;2022-08-19T07:39:25;30.50;68.60
38848;DHT22;24602;44.780;20.408;2022-08-19T07:41:59;30.50;68.40
38848;DHT22;24602;44.780;20.408;2022-08-19T07:44:30;30.60;68.00
38848;DHT22;24602;44.780;20.408;2022-08-19T07:47:00;30.50;69.20
38848;DHT22;24602;44.780;20.408;2022-08-19T07:49:32;30.60;66.20
38848;DHT22;24602;44.780;20.408;2022-08-19T07:52:07;30.60;66.70
38848;DHT22;24602;44.780;20.408;2022-08-19T07:54:38;30.80;67.80
38848;DHT22;24602;44.780;20.408;2022-08-19T07:57:08;30.80;68.50
38848;DHT22;24602;44.780;20.408;2022-08-19T07:59:36;30.80;68.60
38848;DHT22;24602;44.780;20.408;2022-08-19T08:02:10;30.80;68.90
38848;DHT22;24602;44.780;20.408;2022-08-19T08:04:40;30.80;68.40
38848;DHT22;24602;44.780;20.408;2022-08-19T08:07:29;30.90;68.70
38848;DHT22;24602;44.780;20.408;2022-08-19T08:10:19;30.90;69.10
38848;DHT22;24602;44.780;20.408;2022-08-19T08:12:53;30.90;69.10
38848;DHT22;24602;44.780;20.408;2022-08-19T08:15:38;30.90;69.60
38848;DHT22;24602;44.780;20.408;2022-08-19T08:18:11;30.90;69.80
38848;DHT22;24602;44.780;20.408;2022-08-19T08:20:42;31.00;70.10
38848;DHT22;24602;44.780;20.408;2022-08-19T08:23:13;31.00;70.40
38848;DHT22;24602;44.780;20.408;2022-08-19T08:25:57;31.00;70.40
38848;DHT22;24602;44.780;20.408;2022-08-19T08:28:28;31.10;69.50
38848;DHT22;24602;44.780;20.408;2022-08-19T08:31:01;31.10;69.40
38848;DHT22;24602;44.780;20.408;2022-08-19T08:33:37;31.20;70.10
38848;DHT22;24602;44.780;20.408;2022-08-19T08:36:10;31.20;69.50
38848;DHT22;24602;44.780;20.408;2022-08-19T08:38:42;31.20;68.60
38848;DHT22;24602;44.780;20.408;2022-08-19T08:41:22;31.30;68.60
38848;DHT22;24602;44.780;20.408;2022-08-19T08:43:58;31.30;68.60
38848;DHT22;24602;44.780;20.408;2022-08-19T08:46:34;31.40;68.10
38848;DHT22;24602;44.780;20.408;2022-08-19T08:52:31;31.60;67.50
38848;DHT22;24602;44.780;20.408;2022-08-19T08:55:22;31.60;67.50
38848;DHT22;24602;44.780;20.408;2022-08-19T08:58:06;31.60;66.60
38848;DHT22;24602;44.780;20.408;2022-08-19T09:00:37;31.60;65.60
38848;DHT22;24602;44.780;20.408;2022-08-19T09:03:23;31.70;63.60
38848;DHT22;24602;44.780;20.408;2022-08-19T09:09:17;31.90;64.00
38848;DHT22;24602;44.780;20.408;2022-08-19T09:12:01;31.90;65.60
38848;DHT22;24602;44.780;20.408;2022-08-19T09:15:03;32.00;65.80
38848;DHT22;24602;44.780;20.408;2022-08-19T09:17:34;32.00;65.20
38848;DHT22;24602;44.780;20.408;2022-08-19T09:20:14;32.10;65.10
38848;DHT22;24602;44.780;20.408;2022-08-19T09:22:49;32.10;65.00
38848;DHT22;24602;44.780;20.408;2022-08-19T09:25:25;32.20;64.40
38848;DHT22;24602;44.780;20.408;2022-08-19T09:27:56;32.20;62.70
38848;DHT22;24602;44.780;20.408;2022-08-19T09:30:38;32.30;64.70
38848;DHT22;24602;44.780;20.408;2022-08-19T09:33:10;32.30;64.40
38848;DHT22;24602;44.780;20.408;2022-08-19T09:35:38;32.40;63.50
38848;DHT22;24602;44.780;20.408;2022-08-19T09:38:21;32.40;62.70
38848;DHT22;24602;44.780;20.408;2022-08-19T09:40:54;32.50;62.50
38848;DHT22;24602;44.780;20.408;2022-08-19T09:43:26;32.50;62.10
38848;DHT22;24602;44.780;20.408;2022-08-19T09:46:12;32.50;61.00
38848;DHT22;24602;44.780;20.408;2022-08-19T09:48:44;32.60;59.90
38848;DHT22;24602;44.780;20.408;2022-08-19T09:51:26;32.70;59.90
38848;DHT22;24602;44.780;20.408;2022-08-19T09:54:04;32.80;60.20
38848;DHT22;24602;44.780;20.408;2022-08-19T09:56:39;32.90;59.50
38848;DHT22;24602;44.780;20.408;2022-08-19T09:59:11;32.90;59.40
38848;DHT22;24602;44.780;20.408;2022-08-19T10:01:42;32.90;58.30
38848;DHT22;24602;44.780;20.408;2022-08-19T10:04:13;33.00;58.20
38848;DHT22;24602;44.780;20.408;2022-08-19T10:06:50;33.00;56.80
38848;DHT22;24602;44.780;20.408;2022-08-19T10:09:22;33.10;57.50
38848;DHT22;24602;44.780;20.408;2022-08-19T10:12:03;33.20;56.50
38848;DHT22;24602;44.780;20.408;2022-08-19T10:14:37;33.20;56.50
38848;DHT22;24602;44.780;20.408;2022-08-19T10:17:08;33.30;56.30
38848;DHT22;24602;44.780;20.408;2022-08-19T10:19:48;33.30;56.50
38848;DHT22;24602;44.780;20.408;2022-08-19T10:22:23;33.30;55.20
38848;DHT22;24602;44.780;20.408;2022-08-19T10:24:54;33.40;56.50
38848;DHT22;24602;44.780;20.408;2022-08-19T10:27:24;33.40;56.00
38848;DHT22;24602;44.780;20.408;2022-08-19T10:29:59;33.40;56.10
38848;DHT22;24602;44.780;20.408;2022-08-19T10:32:29;33.50;54.90
38848;DHT22;24602;44.780;20.408;2022-08-19T10:35:03;33.60;55.90
38848;DHT22;24602;44.780;20.408;2022-08-19T10:37:42;33.70;55.80
38848;DHT22;24602;44.780;20.408;2022-08-19T10:40:27;33.70;55.60
38848;DHT22;24602;44.780;20.408;2022-08-19T10:42:57;33.70;54.00
38848;DHT22;24602;44.780;20.408;2022-08-19T10:45:30;33.70;54.50
38848;DHT22;24602;44.780;20.408;2022-08-19T10:48:03;33.80;54.50
38848;DHT22;24602;44.780;20.408;2022-08-19T10:50:40;33.90;54.80
38848;DHT22;24602;44.780;20.408;2022-08-19T10:53:27;34.00;55.40
38848;DHT22;24602;44.780;20.408;2022-08-19T10:55:58;34.00;53.70
38848;DHT22;24602;44.780;20.408;2022-08-19T10:58:48;34.10;54.30
38848;DHT22;24602;44.780;20.408;2022-08-19T11:01:22;34.10;54.30
38848;DHT22;24602;44.780;20.408;2022-08-19T11:03:53;34.20;53.70
38848;DHT22;24602;44.780;20.408;2022-08-19T11:06:25;34.20;52.90
38848;DHT22;24602;44.780;20.408;2022-08-19T11:08:54;34.20;52.00
38848;DHT22;24602;44.780;20.408;2022-08-19T11:11:24;34.30;52.20
38848;DHT22;24602;44.780;20.408;2022-08-19T11:13:55;34.30;51.90
38848;DHT22;24602;44.780;20.408;2022-08-19T11:16:26;34.40;51.30
38848;DHT22;24602;44.780;20.408;2022-08-19T11:19:01;34.50;52.40
38848;DHT22;24602;44.780;20.408;2022-08-19T11:21:35;34.50;51.30
38848;DHT22;24602;44.780;20.408;2022-08-19T11:24:10;34.60;50.80
38848;DHT22;24602;44.780;20.408;2022-08-19T11:26:44;34.60;50.10
38848;DHT22;24602;44.780;20.408;2022-08-19T11:29:13;34.70;50.00
38848;DHT22;24602;44.780;20.408;2022-08-19T11:31:44;34.80;49.90
38848;DHT22;24602;44.780;20.408;2022-08-19T11:34:17;34.80;49.60
38848;DHT22;24602;44.780;20.408;2022-08-19T11:36:48;34.80;50.40
38848;DHT22;24602;44.780;20.408;2022-08-19T11:39:20;34.90;50.30
38848;DHT22;24602;44.780;20.408;2022-08-19T11:41:52;35.00;49.50
38848;DHT22;24602;44.780;20.408;2022-08-19T11:44:22;35.00;48.40
38848;DHT22;24602;44.780;20.408;2022-08-19T11:46:51;35.10;48.50
38848;DHT22;24602;44.780;20.408;2022-08-19T11:49:22;35.20;49.60
38848;DHT22;24602;44.780;20.408;2022-08-19T11:51:50;35.20;49.10
38848;DHT22;24602;44.780;20.408;2022-08-19T11:54:21;35.30;48.60
38848;DHT22;24602;44.780;20.408;2022-08-19T11:56:50;35.40;46.00
38848;DHT22;24602;44.780;20.408;2022-08-19T11:59:26;35.40;47.50
38848;DHT22;24602;44.780;20.408;2022-08-19T12:01:58;35.60;48.30
38848;DHT22;24602;44.780;20.408;2022-08-19T12:04:29;35.70;48.80
38848;DHT22;24602;44.780;20.408;2022-08-19T12:07:00;35.80;48.30
38848;DHT22;24602;44.780;20.408;2022-08-19T12:09:33;35.80;47.80
38848;DHT22;24602;44.780;20.408;2022-08-19T12:12:09;35.90;46.70
38848;DHT22;24602;44.780;20.408;2022-08-19T12:14:39;36.10;47.40
38848;DHT22;24602;44.780;20.408;2022-08-19T12:17:10;36.10;47.40
38848;DHT22;24602;44.780;20.408;2022-08-19T12:19:43;36.20;46.50
38848;DHT22;24602;44.780;20.408;2022-08-19T12:22:13;36.30;46.80
38848;DHT22;24602;44.780;20.408;2022-08-19T12:24:45;36.40;45.50
38848;DHT22;24602;44.780;20.408;2022-08-19T12:27:13;36.50;45.90
38848;DHT22;24602;44.780;20.408;2022-08-19T12:30:00;36.70;46.50
38848;DHT22;24602;44.780;20.408;2022-08-19T12:32:30;36.80;46.10
38848;DHT22;24602;44.780;20.408;2022-08-19T12:35:01;36.90;46.30
38848;DHT22;24602;44.780;20.408;2022-08-19T12:37:33;37.00;46.60
38848;DHT22;24602;44.780;20.408;2022-08-19T12:40:08;37.20;45.40
38848;DHT22;24602;44.780;20.408;2022-08-19T12:42:40;37.30;45.90
38848;DHT22;24602;44.780;20.408;2022-08-19T12:45:14;37.50;45.10
38848;DHT22;24602;44.780;20.408;2022-08-19T12:47:48;37.70;45.10
38848;DHT22;24602;44.780;20.408;2022-08-19T12:50:22;37.80;44.70
38848;DHT22;24602;44.780;20.408;2022-08-19T12:52:52;38.10;44.60
38848;DHT22;24602;44.780;20.408;2022-08-19T12:55:21;38.20;44.40
38848;DHT22;24602;44.780;20.408;2022-08-19T12:57:51;38.40;44.20
38848;DHT22;24602;44.780;20.408;2022-08-19T13:00:22;38.50;43.90
38848;DHT22;24602;44.780;20.408;2022-08-19T13:02:54;38.70;43.40
38848;DHT22;24602;44.780;20.408;2022-08-19T13:05:29;39.10;42.60
38848;DHT22;24602;44.780;20.408;2022-08-19T13:08:01;39.50;42.50
38848;DHT22;24602;44.780;20.408;2022-08-19T13:10:35;40.20;41.90
38848;DHT22;24602;44.780;20.408;2022-08-19T13:13:15;40.90;39.00
38848;DHT22;24602;44.780;20.408;2022-08-19T13:15:46;42.20;37.90
38848;DHT22;24602;44.780;20.408;2022-08-19T13:18:15;43.30;35.90
38848;DHT22;24602;44.780;20.408;2022-08-19T13:20:43;44.20;35.10
38848;DHT22;24602;44.780;20.408;2022-08-19T13:23:20;44.90;33.30
38848;DHT22;24602;44.780;20.408;2022-08-19T13:26:04;45.70;32.20
38848;DHT22;24602;44.780;20.408;2022-08-19T13:28:41;46.70;31.80
38848;DHT22;24602;44.780;20.408;2022-08-19T13:31:33;46.70;30.10
38848;DHT22;24602;44.780;20.408;2022-08-19T13:34:33;46.90;30.30
38848;DHT22;24602;44.780;20.408;2022-08-19T13:37:03;47.70;29.80
38848;DHT22;24602;44.780;20.408;2022-08-19T13:39:33;48.30;29.00
38848;DHT22;24602;44.780;20.408;2022-08-19T13:42:04;49.00;28.70
38848;DHT22;24602;44.780;20.408;2022-08-19T13:44:35;49.70;28.30
38848;DHT22;24602;44.780;20.408;2022-08-19T13:47:06;49.70;27.90
38848;DHT22;24602;44.780;20.408;2022-08-19T13:49:39;49.00;27.40
38848;DHT22;24602;44.780;20.408;2022-08-19T13:52:09;48.70;28.00
38848;DHT22;24602;44.780;20.408;2022-08-19T13:54:37;48.50;27.50
38848;DHT22;24602;44.780;20.408;2022-08-19T13:57:06;48.90;28.20
38848;DHT22;24602;44.780;20.408;2022-08-19T13:59:35;49.00;28.00
38848;DHT22;24602;44.780;20.408;2022-08-19T14:02:08;49.30;28.10
38848;DHT22;24602;44.780;20.408;2022-08-19T14:04:39;49.50;28.20
38848;DHT22;24602;44.780;20.408;2022-08-19T14:07:09;49.60;28.00
38848;DHT22;24602;44.780;20.408;2022-08-19T14:09:39;49.50;27.70
38848;DHT22;24602;44.780;20.408;2022-08-19T14:12:12;49.10;27.50
38848;DHT22;24602;44.780;20.408;2022-08-19T14:14:56;48.90;27.60
38848;DHT22;24602;44.780;20.408;2022-08-19T14:17:27;48.60;27.40
38848;DHT22;24602;44.780;20.408;2022-08-19T14:20:01;47.70;26.60
38848;DHT22;24602;44.780;20.408;2022-08-19T14:22:48;46.80;27.40
38848;DHT22;24602;44.780;20.408;2022-08-19T14:25:23;46.40;28.10
38848;DHT22;24602;44.780;20.408;2022-08-19T14:27:57;46.30;28.40
38848;DHT22;24602;44.780;20.408;2022-08-19T14:30:29;46.30;28.50
38848;DHT22;24602;44.780;20.408;2022-08-19T14:32:58;46.20;29.00
38848;DHT22;24602;44.780;20.408;2022-08-19T14:35:29;46.00;29.10
38848;DHT22;24602;44.780;20.408;2022-08-19T14:38:02;45.70;29.40
38848;DHT22;24602;44.780;20.408;2022-08-19T14:40:33;44.80;28.80
38848;DHT22;24602;44.780;20.408;2022-08-19T14:43:06;43.50;29.70
38848;DHT22;24602;44.780;20.408;2022-08-19T14:45:38;42.50;30.50
38848;DHT22;24602;44.780;20.408;2022-08-19T14:48:11;41.70;31.20
38848;DHT22;24602;44.780;20.408;2022-08-19T14:50:46;41.10;32.40
38848;DHT22;24602;44.780;20.408;2022-08-19T14:53:18;40.50;33.20
38848;DHT22;24602;44.780;20.408;2022-08-19T14:55:50;40.00;33.50
38848;DHT22;24602;44.780;20.408;2022-08-19T14:58:21;39.80;34.20
38848;DHT22;24602;44.780;20.408;2022-08-19T15:00:59;39.60;34.60
38848;DHT22;24602;44.780;20.408;2022-08-19T15:03:28;39.20;34.60
38848;DHT22;24602;44.780;20.408;2022-08-19T15:06:04;39.00;34.50
38848;DHT22;24602;44.780;20.408;2022-08-19T15:08:36;38.60;36.30
38848;DHT22;24602;44.780;20.408;2022-08-19T15:11:15;37.90;40.40
38848;DHT22;24602;44.780;20.408;2022-08-19T15:13:45;37.10;41.80
38848;DHT22;24602;44.780;20.408;2022-08-19T15:16:16;36.50;42.60
38848;DHT22;24602;44.780;20.408;2022-08-19T15:18:52;36.10;43.50
38848;DHT22;24602;44.780;20.408;2022-08-19T15:21:24;36.00;44.20
38848;DHT22;24602;44.780;20.408;2022-08-19T15:23:56;35.70;44.10
38848;DHT22;24602;44.780;20.408;2022-08-19T15:26:28;35.60;44.90
38848;DHT22;24602;44.780;20.408;2022-08-19T15:29:07;35.40;45.40
38848;DHT22;24602;44.780;20.408;2022-08-19T15:31:40;35.10;45.60
38848;DHT22;24602;44.780;20.408;2022-08-19T15:34:11;35.00;46.30
38848;DHT22;24602;44.780;20.408;2022-08-19T15:36:41;34.90;46.50
38848;DHT22;24602;44.780;20.408;2022-08-19T15:39:10;34.70;46.20
38848;DHT22;24602;44.780;20.408;2022-08-19T15:41:42;34.50;46.20
38848;DHT22;24602;44.780;20.408;2022-08-19T15:44:16;34.30;46.70
38848;DHT22;24602;44.780;20.408;2022-08-19T15:46:47;34.20;46.70
38848;DHT22;24602;44.780;20.408;2022-08-19T15:49:18;34.20;46.70
38848;DHT22;24602;44.780;20.408;2022-08-19T15:51:50;34.20;47.20
38848;DHT22;24602;44.780;20.408;2022-08-19T15:54:24;34.00;47.50
38848;DHT22;24602;44.780;20.408;2022-08-19T15:56:55;34.10;47.70
38848;DHT22;24602;44.780;20.408;2022-08-19T15:59:44;33.80;48.20
38848;DHT22;24602;44.780;20.408;2022-08-19T16:02:36;33.50;49.00
38848;DHT22;24602;44.780;20.408;2022-08-19T16:05:27;33.20;49.60